McCrae, Australia

7:17 AM AEST on May 01, 2017 (GMT +1000)
McCrae hill overlooking the Bay | | Change Station

Elev 43 ft 38.36 °S, 144.93 °E | Updated 8 seconds ago

Overcast
Overcast
60.4 °F
Feels Like 60.4 °F
N
13.6
Wind Variable Wind from East
Gusts 15.2 mph

Today
High -- | Low -- °F
--% Chance of Precip.
Yesterday
High -- | Low -- °F
Precip. -- in
Pressure 29.98 in
Visibility 6.2 miles
Clouds Overcast 5600 ft
Dew Point 54 °F
Humidity 78%
Rainfall 0.00 in
Snow Depth Not available.
7:02 AM 5:32 PM
Waxing Crescent, 26% visible
METAR YMAV 302100Z AUTO 36009KT 9999 // OVC056 14/10 Q1015 RF00.0/000.0
Pressure 29.98 in
Visibility 6.2 miles
Clouds Overcast 5600 ft
Dew Point 54 °F
Humidity 78%
Rainfall 0.00 in
Snow Depth Not available.
7:02 AM 5:32 PM
Waxing Crescent, 26% visible
METAR YMAV 302100Z AUTO 36009KT 9999 // OVC056 14/10 Q1015 RF00.0/000.0

Get Severe Weather Alerts

Thanks for signing up!

Be on the lookout for a verification email in your inbox.

You'll start receiving the daily forecast at 8 AM.

×

10-Day Weather Forecast

×

Almanac

Astronomy

May. 01, 2017 Rise Set
Actual Time
Civil Twilight
Nautical Twilight
Astronomical Twilight
Moon
Length of Visible Light
Length of Day
Tomorrow will be .
, % of the Moon is Illuminated

Today's Extremes

Country Highs Country Lows

Community

WunderPhotos

WunderBlog® & News

Nearby

Air Quality

  Air Quality AQ Index Pollutant
Not available.

Snow Depth

Station Depth Elevation

Earthquake Activity

City Distance Mag. Time & Date
Minimum magnitude displayed is 2.5.

Coastal Water Temperatures

Place Temperature

Stations

Nearby Weather Stations

Station Location Temp. Windchill Dew Point Humidity Wind Precip. Elev Updated Type